sensor_id;sensor_type;location;lat;lon;timestamp;P1;durP1;ratioP1;P2;durP2;ratioP2
28028;SDS011;15345;59.364;18.016;2023-07-20T00:00:02;3.55;;;0.85;;
28028;SDS011;15345;59.364;18.016;2023-07-20T00:01:22;0.70;;;0.57;;
28028;SDS011;15345;59.364;18.016;2023-07-20T00:02:41;0.55;;;0.43;;
28028;SDS011;15345;59.364;18.016;2023-07-20T00:04:00;0.90;;;0.60;;
28028;SDS011;15345;59.364;18.016;2023-07-20T00:05:19;2.72;;;0.75;;
28028;SDS011;15345;59.364;18.016;2023-07-20T00:06:40;2.13;;;0.70;;
28028;SDS011;15345;59.364;18.016;2023-07-20T00:07:59;1.48;;;0.60;;
28028;SDS011;15345;59.364;18.016;2023-07-20T00:09:18;1.73;;;0.73;;
28028;SDS011;15345;59.364;18.016;2023-07-20T00:10:37;1.42;;;0.85;;
28028;SDS011;15345;59.364;18.016;2023-07-20T00:11:56;1.27;;;0.70;;
28028;SDS011;15345;59.364;18.016;2023-07-20T00:13:15;1.75;;;0.52;;
28028;SDS011;15345;59.364;18.016;2023-07-20T00:14:34;1.85;;;0.60;;
28028;SDS011;15345;59.364;18.016;2023-07-20T00:15:53;0.63;;;0.60;;
28028;SDS011;15345;59.364;18.016;2023-07-20T00:17:12;3.30;;;0.70;;
28028;SDS011;15345;59.364;18.016;2023-07-20T00:18:31;1.98;;;0.80;;
28028;SDS011;15345;59.364;18.016;2023-07-20T00:19:50;1.58;;;0.70;;
28028;SDS011;15345;59.364;18.016;2023-07-20T00:21:09;0.98;;;0.50;;
28028;SDS011;15345;59.364;18.016;2023-07-20T00:22:28;1.60;;;0.60;;
28028;SDS011;15345;59.364;18.016;2023-07-20T00:23:47;0.95;;;0.50;;
28028;SDS011;15345;59.364;18.016;2023-07-20T00:25:05;0.90;;;0.40;;
28028;SDS011;15345;59.364;18.016;2023-07-20T00:26:25;3.67;;;0.75;;
28028;SDS011;15345;59.364;18.016;2023-07-20T00:27:44;1.35;;;0.65;;
28028;SDS011;15345;59.364;18.016;2023-07-20T00:29:02;1.33;;;0.63;;
28028;SDS011;15345;59.364;18.016;2023-07-20T00:30:22;1.50;;;0.70;;
28028;SDS011;15345;59.364;18.016;2023-07-20T00:31:41;2.72;;;0.90;;
28028;SDS011;15345;59.364;18.016;2023-07-20T00:33:02;1.48;;;0.52;;
28028;SDS011;15345;59.364;18.016;2023-07-20T00:34:20;1.48;;;0.50;;
28028;SDS011;15345;59.364;18.016;2023-07-20T00:35:40;0.88;;;0.50;;
28028;SDS011;15345;59.364;18.016;2023-07-20T00:36:59;2.25;;;0.80;;
28028;SDS011;15345;59.364;18.016;2023-07-20T00:38:17;3.95;;;0.70;;
28028;SDS011;15345;59.364;18.016;2023-07-20T00:39:36;1.85;;;0.60;;
28028;SDS011;15345;59.364;18.016;2023-07-20T00:40:55;1.67;;;0.60;;
28028;SDS011;15345;59.364;18.016;2023-07-20T00:42:14;2.70;;;0.93;;
28028;SDS011;15345;59.364;18.016;2023-07-20T00:43:33;2.45;;;0.60;;
28028;SDS011;15345;59.364;18.016;2023-07-20T00:44:52;1.15;;;0.70;;
28028;SDS011;15345;59.364;18.016;2023-07-20T00:46:11;3.08;;;1.05;;
28028;SDS011;15345;59.364;18.016;2023-07-20T00:47:30;3.13;;;0.80;;
28028;SDS011;15345;59.364;18.016;2023-07-20T00:48:50;1.55;;;1.17;;
28028;SDS011;15345;59.364;18.016;2023-07-20T00:50:10;2.15;;;0.70;;
28028;SDS011;15345;59.364;18.016;2023-07-20T00:51:29;1.45;;;1.02;;
28028;SDS011;15345;59.364;18.016;2023-07-20T00:52:48;2.38;;;0.98;;
28028;SDS011;15345;59.364;18.016;2023-07-20T00:54:07;2.53;;;0.57;;
28028;SDS011;15345;59.364;18.016;2023-07-20T00:55:26;2.33;;;0.65;;
28028;SDS011;15345;59.364;18.016;2023-07-20T00:56:46;5.15;;;0.90;;
28028;SDS011;15345;59.364;18.016;2023-07-20T00:58:05;2.45;;;1.10;;
28028;SDS011;15345;59.364;18.016;2023-07-20T00:59:25;6.28;;;1.17;;
28028;SDS011;15345;59.364;18.016;2023-07-20T01:00:44;2.42;;;0.65;;
28028;SDS011;15345;59.364;18.016;2023-07-20T01:02:03;4.78;;;1.60;;
28028;SDS011;15345;59.364;18.016;2023-07-20T01:03:22;5.15;;;1.35;;
28028;SDS011;15345;59.364;18.016;2023-07-20T01:04:41;0.65;;;0.55;;
28028;SDS011;15345;59.364;18.016;2023-07-20T01:06:04;2.40;;;0.90;;
28028;SDS011;15345;59.364;18.016;2023-07-20T01:07:26;3.13;;;0.90;;
28028;SDS011;15345;59.364;18.016;2023-07-20T01:13:17;2.83;;;0.75;;
28028;SDS011;15345;59.364;18.016;2023-07-20T01:14:36;1.67;;;0.80;;
28028;SDS011;15345;59.364;18.016;2023-07-20T01:15:56;4.53;;;0.90;;
28028;SDS011;15345;59.364;18.016;2023-07-20T01:18:38;2.83;;;0.88;;
28028;SDS011;15345;59.364;18.016;2023-07-20T01:19:57;4.65;;;0.80;;
28028;SDS011;15345;59.364;18.016;2023-07-20T01:21:18;1.35;;;0.88;;
28028;SDS011;15345;59.364;18.016;2023-07-20T01:25:42;2.78;;;1.10;;
28028;SDS011;15345;59.364;18.016;2023-07-20T01:31:26;3.67;;;0.95;;
28028;SDS011;15345;59.364;18.016;2023-07-20T01:32:45;6.35;;;0.90;;
28028;SDS011;15345;59.364;18.016;2023-07-20T01:34:05;2.55;;;0.98;;
28028;SDS011;15345;59.364;18.016;2023-07-20T01:35:27;2.33;;;1.08;;
28028;SDS011;15345;59.364;18.016;2023-07-20T01:36:47;4.78;;;1.05;;
28028;SDS011;15345;59.364;18.016;2023-07-20T01:38:07;2.75;;;1.25;;
28028;SDS011;15345;59.364;18.016;2023-07-20T01:39:26;4.43;;;0.80;;
28028;SDS011;15345;59.364;18.016;2023-07-20T01:40:46;2.30;;;0.77;;
28028;SDS011;15345;59.364;18.016;2023-07-20T01:42:05;3.03;;;1.00;;
28028;SDS011;15345;59.364;18.016;2023-07-20T01:43:24;4.07;;;0.82;;
28028;SDS011;15345;59.364;18.016;2023-07-20T01:44:43;2.22;;;0.75;;
28028;SDS011;15345;59.364;18.016;2023-07-20T01:46:02;4.20;;;0.90;;
28028;SDS011;15345;59.364;18.016;2023-07-20T01:47:21;1.10;;;0.60;;
28028;SDS011;15345;59.364;18.016;2023-07-20T01:48:41;1.48;;;0.88;;
28028;SDS011;15345;59.364;18.016;2023-07-20T01:50:00;2.85;;;1.08;;
28028;SDS011;15345;59.364;18.016;2023-07-20T01:51:18;2.28;;;1.00;;
28028;SDS011;15345;59.364;18.016;2023-07-20T01:52:37;5.50;;;1.73;;
28028;SDS011;15345;59.364;18.016;2023-07-20T01:53:56;4.95;;;1.13;;
28028;SDS011;15345;59.364;18.016;2023-07-20T01:55:15;2.05;;;0.90;;
28028;SDS011;15345;59.364;18.016;2023-07-20T01:56:34;2.97;;;0.88;;
28028;SDS011;15345;59.364;18.016;2023-07-20T01:57:54;5.30;;;0.93;;
28028;SDS011;15345;59.364;18.016;2023-07-20T01:59:13;3.10;;;1.25;;
28028;SDS011;15345;59.364;18.016;2023-07-20T02:00:32;3.28;;;1.00;;
28028;SDS011;15345;59.364;18.016;2023-07-20T02:01:52;3.30;;;1.20;;
28028;SDS011;15345;59.364;18.016;2023-07-20T02:03:11;2.67;;;1.02;;
28028;SDS011;15345;59.364;18.016;2023-07-20T02:04:30;3.92;;;0.95;;
28028;SDS011;15345;59.364;18.016;2023-07-20T02:05:49;4.30;;;1.10;;
28028;SDS011;15345;59.364;18.016;2023-07-20T02:07:08;5.20;;;1.17;;
28028;SDS011;15345;59.364;18.016;2023-07-20T02:08:27;2.53;;;1.10;;
28028;SDS011;15345;59.364;18.016;2023-07-20T02:09:46;2.20;;;0.95;;
28028;SDS011;15345;59.364;18.016;2023-07-20T02:11:05;4.35;;;1.02;;
28028;SDS011;15345;59.364;18.016;2023-07-20T02:12:24;3.35;;;0.90;;
28028;SDS011;15345;59.364;18.016;2023-07-20T02:13:43;4.38;;;1.33;;
28028;SDS011;15345;59.364;18.016;2023-07-20T02:15:02;5.65;;;1.00;;
28028;SDS011;15345;59.364;18.016;2023-07-20T02:16:22;2.20;;;0.90;;
28028;SDS011;15345;59.364;18.016;2023-07-20T02:17:41;2.13;;;0.90;;
28028;SDS011;15345;59.364;18.016;2023-07-20T02:19:00;4.95;;;1.05;;
28028;SDS011;15345;59.364;18.016;2023-07-20T02:20:19;4.22;;;1.20;;
28028;SDS011;15345;59.364;18.016;2023-07-20T02:21:38;3.17;;;0.90;;
28028;SDS011;15345;59.364;18.016;2023-07-20T02:22:57;3.63;;;1.25;;
28028;SDS011;15345;59.364;18.016;2023-07-20T02:24:17;5.90;;;1.25;;
28028;SDS011;15345;59.364;18.016;2023-07-20T02:25:36;7.25;;;1.73;;
28028;SDS011;15345;59.364;18.016;2023-07-20T02:26:55;7.15;;;1.30;;
28028;SDS011;15345;59.364;18.016;2023-07-20T02:28:14;3.35;;;1.10;;
28028;SDS011;15345;59.364;18.016;2023-07-20T02:29:33;1.67;;;0.95;;
28028;SDS011;15345;59.364;18.016;2023-07-20T02:30:52;3.20;;;0.90;;
28028;SDS011;15345;59.364;18.016;2023-07-20T02:32:12;5.60;;;1.17;;
28028;SDS011;15345;59.364;18.016;2023-07-20T02:33:31;5.00;;;1.25;;
28028;SDS011;15345;59.364;18.016;2023-07-20T02:34:50;4.30;;;1.10;;
28028;SDS011;15345;59.364;18.016;2023-07-20T02:36:09;3.40;;;1.10;;
28028;SDS011;15345;59.364;18.016;2023-07-20T02:37:28;2.95;;;1.13;;
28028;SDS011;15345;59.364;18.016;2023-07-20T02:38:47;4.03;;;1.00;;
28028;SDS011;15345;59.364;18.016;2023-07-20T02:40:06;3.33;;;1.60;;
28028;SDS011;15345;59.364;18.016;2023-07-20T02:41:26;3.40;;;1.00;;
28028;SDS011;15345;59.364;18.016;2023-07-20T02:42:45;3.22;;;1.00;;
28028;SDS011;15345;59.364;18.016;2023-07-20T02:44:04;5.97;;;1.23;;
28028;SDS011;15345;59.364;18.016;2023-07-20T02:45:23;5.45;;;1.10;;
28028;SDS011;15345;59.364;18.016;2023-07-20T02:46:42;5.25;;;1.10;;
28028;SDS011;15345;59.364;18.016;2023-07-20T02:48:01;1.55;;;0.73;;
28028;SDS011;15345;59.364;18.016;2023-07-20T02:49:21;3.42;;;1.08;;
28028;SDS011;15345;59.364;18.016;2023-07-20T02:50:40;6.63;;;1.20;;
28028;SDS011;15345;59.364;18.016;2023-07-20T02:51:59;2.85;;;0.98;;
28028;SDS011;15345;59.364;18.016;2023-07-20T02:53:18;3.75;;;1.02;;
28028;SDS011;15345;59.364;18.016;2023-07-20T02:54:37;5.32;;;1.50;;
28028;SDS011;15345;59.364;18.016;2023-07-20T02:55:56;3.50;;;1.23;;
28028;SDS011;15345;59.364;18.016;2023-07-20T02:57:15;2.38;;;1.00;;
28028;SDS011;15345;59.364;18.016;2023-07-20T02:58:34;5.38;;;1.38;;
28028;SDS011;15345;59.364;18.016;2023-07-20T02:59:56;4.90;;;1.20;;
28028;SDS011;15345;59.364;18.016;2023-07-20T03:01:15;2.42;;;1.25;;
28028;SDS011;15345;59.364;18.016;2023-07-20T03:02:34;6.03;;;1.40;;
28028;SDS011;15345;59.364;18.016;2023-07-20T03:03:53;4.90;;;1.70;;
28028;SDS011;15345;59.364;18.016;2023-07-20T03:05:13;2.42;;;0.95;;
28028;SDS011;15345;59.364;18.016;2023-07-20T03:06:32;3.63;;;1.10;;
28028;SDS011;15345;59.364;18.016;2023-07-20T03:07:57;3.90;;;1.48;;
28028;SDS011;15345;59.364;18.016;2023-07-20T03:10:40;3.30;;;1.23;;
28028;SDS011;15345;59.364;18.016;2023-07-20T03:12:01;5.18;;;1.30;;
28028;SDS011;15345;59.364;18.016;2023-07-20T03:13:23;4.75;;;1.63;;
28028;SDS011;15345;59.364;18.016;2023-07-20T03:14:42;2.33;;;1.33;;
28028;SDS011;15345;59.364;18.016;2023-07-20T03:16:02;3.60;;;1.30;;
28028;SDS011;15345;59.364;18.016;2023-07-20T03:17:21;3.00;;;1.13;;
28028;SDS011;15345;59.364;18.016;2023-07-20T03:18:40;4.15;;;1.30;;
28028;SDS011;15345;59.364;18.016;2023-07-20T03:19:59;2.97;;;1.38;;
28028;SDS011;15345;59.364;18.016;2023-07-20T03:21:19;5.43;;;1.25;;
28028;SDS011;15345;59.364;18.016;2023-07-20T03:22:38;3.28;;;1.05;;
28028;SDS011;15345;59.364;18.016;2023-07-20T03:23:57;5.53;;;1.60;;
28028;SDS011;15345;59.364;18.016;2023-07-20T03:25:16;6.90;;;1.50;;
28028;SDS011;15345;59.364;18.016;2023-07-20T03:26:36;3.85;;;1.45;;
28028;SDS011;15345;59.364;18.016;2023-07-20T03:27:55;2.58;;;1.02;;
28028;SDS011;15345;59.364;18.016;2023-07-20T03:29:14;1.67;;;1.13;;
28028;SDS011;15345;59.364;18.016;2023-07-20T03:30:35;2.92;;;1.08;;
28028;SDS011;15345;59.364;18.016;2023-07-20T03:31:54;4.85;;;1.35;;
28028;SDS011;15345;59.364;18.016;2023-07-20T03:33:13;2.38;;;1.42;;
28028;SDS011;15345;59.364;18.016;2023-07-20T03:34:32;3.72;;;1.27;;
28028;SDS011;15345;59.364;18.016;2023-07-20T03:35:51;6.75;;;1.58;;
28028;SDS011;15345;59.364;18.016;2023-07-20T03:37:10;8.88;;;1.40;;
28028;SDS011;15345;59.364;18.016;2023-07-20T03:38:29;2.75;;;1.30;;
28028;SDS011;15345;59.364;18.016;2023-07-20T03:39:48;2.83;;;1.33;;
28028;SDS011;15345;59.364;18.016;2023-07-20T03:41:07;2.03;;;1.40;;
28028;SDS011;15345;59.364;18.016;2023-07-20T03:42:26;5.35;;;1.55;;
28028;SDS011;15345;59.364;18.016;2023-07-20T03:43:45;4.38;;;1.38;;
28028;SDS011;15345;59.364;18.016;2023-07-20T03:45:04;2.60;;;1.30;;
28028;SDS011;15345;59.364;18.016;2023-07-20T03:46:24;4.35;;;1.27;;
28028;SDS011;15345;59.364;18.016;2023-07-20T03:47:43;4.65;;;1.40;;
28028;SDS011;15345;59.364;18.016;2023-07-20T03:49:03;8.07;;;1.55;;
28028;SDS011;15345;59.364;18.016;2023-07-20T03:50:22;2.83;;;1.20;;
28028;SDS011;15345;59.364;18.016;2023-07-20T03:51:41;4.38;;;1.23;;
28028;SDS011;15345;59.364;18.016;2023-07-20T03:53:00;6.20;;;1.73;;
28028;SDS011;15345;59.364;18.016;2023-07-20T03:54:19;6.10;;;1.65;;
28028;SDS011;15345;59.364;18.016;2023-07-20T03:55:38;5.47;;;1.38;;
28028;SDS011;15345;59.364;18.016;2023-07-20T03:56:58;6.35;;;1.73;;
28028;SDS011;15345;59.364;18.016;2023-07-20T03:58:19;6.88;;;1.30;;
28028;SDS011;15345;59.364;18.016;2023-07-20T03:59:38;2.40;;;1.52;;
28028;SDS011;15345;59.364;18.016;2023-07-20T04:00:57;6.30;;;1.33;;
28028;SDS011;15345;59.364;18.016;2023-07-20T04:02:17;5.68;;;1.40;;
28028;SDS011;15345;59.364;18.016;2023-07-20T04:03:36;3.78;;;1.70;;
28028;SDS011;15345;59.364;18.016;2023-07-20T04:04:56;3.53;;;1.27;;
28028;SDS011;15345;59.364;18.016;2023-07-20T04:06:15;3.83;;;1.30;;
28028;SDS011;15345;59.364;18.016;2023-07-20T04:07:35;4.15;;;1.80;;
28028;SDS011;15345;59.364;18.016;2023-07-20T04:08:54;3.95;;;1.38;;
28028;SDS011;15345;59.364;18.016;2023-07-20T04:10:13;4.78;;;1.48;;
28028;SDS011;15345;59.364;18.016;2023-07-20T04:11:32;4.05;;;1.85;;
28028;SDS011;15345;59.364;18.016;2023-07-20T04:12:51;2.17;;;1.10;;
28028;SDS011;15345;59.364;18.016;2023-07-20T04:14:10;3.05;;;1.50;;
28028;SDS011;15345;59.364;18.016;2023-07-20T04:15:30;2.03;;;1.35;;
28028;SDS011;15345;59.364;18.016;2023-07-20T04:16:49;3.90;;;1.25;;
28028;SDS011;15345;59.364;18.016;2023-07-20T04:18:10;7.95;;;1.42;;
28028;SDS011;15345;59.364;18.016;2023-07-20T04:19:29;7.20;;;1.58;;
28028;SDS011;15345;59.364;18.016;2023-07-20T04:20:47;5.00;;;1.60;;
28028;SDS011;15345;59.364;18.016;2023-07-20T04:22:06;3.38;;;1.55;;
28028;SDS011;15345;59.364;18.016;2023-07-20T04:23:25;6.22;;;1.70;;
28028;SDS011;15345;59.364;18.016;2023-07-20T04:24:44;3.78;;;1.52;;
28028;SDS011;15345;59.364;18.016;2023-07-20T04:26:03;5.30;;;1.60;;
28028;SDS011;15345;59.364;18.016;2023-07-20T04:27:22;4.78;;;1.45;;
28028;SDS011;15345;59.364;18.016;2023-07-20T04:28:41;5.40;;;1.58;;
28028;SDS011;15345;59.364;18.016;2023-07-20T04:30:01;4.38;;;1.40;;
28028;SDS011;15345;59.364;18.016;2023-07-20T04:31:21;3.65;;;1.60;;
28028;SDS011;15345;59.364;18.016;2023-07-20T04:32:40;4.20;;;1.60;;
28028;SDS011;15345;59.364;18.016;2023-07-20T04:34:04;4.63;;;1.40;;
28028;SDS011;15345;59.364;18.016;2023-07-20T04:37:01;8.50;;;1.85;;
28028;SDS011;15345;59.364;18.016;2023-07-20T04:38:21;6.10;;;1.70;;
28028;SDS011;15345;59.364;18.016;2023-07-20T04:39:39;6.95;;;2.05;;
28028;SDS011;15345;59.364;18.016;2023-07-20T04:40:58;3.90;;;1.85;;
28028;SDS011;15345;59.364;18.016;2023-07-20T04:42:17;4.10;;;1.48;;
28028;SDS011;15345;59.364;18.016;2023-07-20T04:43:41;4.13;;;1.80;;
28028;SDS011;15345;59.364;18.016;2023-07-20T04:45:00;4.05;;;1.50;;
28028;SDS011;15345;59.364;18.016;2023-07-20T04:46:19;7.90;;;2.10;;
28028;SDS011;15345;59.364;18.016;2023-07-20T04:47:40;4.10;;;1.60;;
28028;SDS011;15345;59.364;18.016;2023-07-20T04:48:59;7.90;;;1.98;;
28028;SDS011;15345;59.364;18.016;2023-07-20T04:50:18;7.35;;;2.55;;
28028;SDS011;15345;59.364;18.016;2023-07-20T04:51:37;6.15;;;1.90;;
28028;SDS011;15345;59.364;18.016;2023-07-20T04:52:56;7.75;;;1.40;;
28028;SDS011;15345;59.364;18.016;2023-07-20T04:54:14;4.53;;;1.80;;
28028;SDS011;15345;59.364;18.016;2023-07-20T04:55:36;11.15;;;2.13;;
28028;SDS011;15345;59.364;18.016;2023-07-20T04:56:55;12.45;;;1.90;;
28028;SDS011;15345;59.364;18.016;2023-07-20T04:58:14;6.65;;;2.13;;
28028;SDS011;15345;59.364;18.016;2023-07-20T04:59:33;5.93;;;1.85;;
28028;SDS011;15345;59.364;18.016;2023-07-20T05:00:52;9.07;;;2.03;;
28028;SDS011;15345;59.364;18.016;2023-07-20T05:02:12;8.18;;;1.90;;
28028;SDS011;15345;59.364;18.016;2023-07-20T05:03:31;5.47;;;2.10;;
28028;SDS011;15345;59.364;18.016;2023-07-20T05:04:50;8.50;;;2.00;;
28028;SDS011;15345;59.364;18.016;2023-07-20T05:06:09;8.18;;;1.83;;
28028;SDS011;15345;59.364;18.016;2023-07-20T05:07:28;6.10;;;1.98;;
28028;SDS011;15345;59.364;18.016;2023-07-20T05:08:47;5.32;;;2.15;;
28028;SDS011;15345;59.364;18.016;2023-07-20T05:10:06;5.63;;;2.08;;
28028;SDS011;15345;59.364;18.016;2023-07-20T05:11:25;6.50;;;1.77;;
28028;SDS011;15345;59.364;18.016;2023-07-20T05:12:44;6.22;;;2.05;;
28028;SDS011;15345;59.364;18.016;2023-07-20T05:14:04;7.38;;;1.98;;
28028;SDS011;15345;59.364;18.016;2023-07-20T05:15:23;5.97;;;1.83;;
28028;SDS011;15345;59.364;18.016;2023-07-20T05:16:42;10.55;;;1.98;;
28028;SDS011;15345;59.364;18.016;2023-07-20T05:18:01;5.63;;;1.85;;
28028;SDS011;15345;59.364;18.016;2023-07-20T05:19:20;3.42;;;1.70;;
28028;SDS011;15345;59.364;18.016;2023-07-20T05:20:38;6.38;;;1.70;;
28028;SDS011;15345;59.364;18.016;2023-07-20T05:21:57;7.78;;;2.28;;
28028;SDS011;15345;59.364;18.016;2023-07-20T05:23:19;4.78;;;2.33;;
28028;SDS011;15345;59.364;18.016;2023-07-20T05:24:38;5.13;;;1.95;;
28028;SDS011;15345;59.364;18.016;2023-07-20T05:25:58;8.18;;;2.17;;
28028;SDS011;15345;59.364;18.016;2023-07-20T05:27:17;8.60;;;2.30;;
28028;SDS011;15345;59.364;18.016;2023-07-20T05:28:36;6.85;;;1.90;;
28028;SDS011;15345;59.364;18.016;2023-07-20T05:29:55;4.55;;;1.63;;
28028;SDS011;15345;59.364;18.016;2023-07-20T05:31:14;5.10;;;2.08;;
28028;SDS011;15345;59.364;18.016;2023-07-20T05:32:33;7.07;;;1.70;;
28028;SDS011;15345;59.364;18.016;2023-07-20T05:33:52;4.18;;;2.55;;
28028;SDS011;15345;59.364;18.016;2023-07-20T05:35:12;3.67;;;1.80;;
28028;SDS011;15345;59.364;18.016;2023-07-20T05:36:31;7.93;;;2.47;;
28028;SDS011;15345;59.364;18.016;2023-07-20T05:37:50;6.40;;;1.80;;
28028;SDS011;15345;59.364;18.016;2023-07-20T05:39:09;12.18;;;2.78;;
28028;SDS011;15345;59.364;18.016;2023-07-20T05:40:28;8.50;;;2.50;;
28028;SDS011;15345;59.364;18.016;2023-07-20T05:41:46;6.95;;;1.92;;
28028;SDS011;15345;59.364;18.016;2023-07-20T05:43:05;4.20;;;1.70;;
28028;SDS011;15345;59.364;18.016;2023-07-20T05:44:24;5.53;;;2.08;;
28028;SDS011;15345;59.364;18.016;2023-07-20T05:45:43;6.20;;;1.90;;
28028;SDS011;15345;59.364;18.016;2023-07-20T05:47:03;7.18;;;2.70;;
28028;SDS011;15345;59.364;18.016;2023-07-20T05:48:23;5.68;;;2.53;;
28028;SDS011;15345;59.364;18.016;2023-07-20T05:49:42;5.90;;;1.70;;
28028;SDS011;15345;59.364;18.016;2023-07-20T05:51:01;8.20;;;2.08;;
28028;SDS011;15345;59.364;18.016;2023-07-20T05:52:20;7.78;;;1.58;;
28028;SDS011;15345;59.364;18.016;2023-07-20T05:53:39;7.00;;;2.00;;
28028;SDS011;15345;59.364;18.016;2023-07-20T05:54:58;5.40;;;1.60;;
28028;SDS011;15345;59.364;18.016;2023-07-20T05:56:17;6.35;;;2.00;;
28028;SDS011;15345;59.364;18.016;2023-07-20T05:57:36;4.50;;;2.35;;
28028;SDS011;15345;59.364;18.016;2023-07-20T05:58:58;6.55;;;2.08;;
28028;SDS011;15345;59.364;18.016;2023-07-20T06:00:17;5.47;;;1.88;;
28028;SDS011;15345;59.364;18.016;2023-07-20T06:01:37;6.13;;;1.90;;
28028;SDS011;15345;59.364;18.016;2023-07-20T06:02:56;8.60;;;2.20;;
28028;SDS011;15345;59.364;18.016;2023-07-20T06:04:15;4.80;;;2.05;;
28028;SDS011;15345;59.364;18.016;2023-07-20T06:05:35;14.40;;;2.58;;
28028;SDS011;15345;59.364;18.016;2023-07-20T06:06:54;10.10;;;2.55;;
28028;SDS011;15345;59.364;18.016;2023-07-20T06:08:13;6.68;;;1.95;;
28028;SDS011;15345;59.364;18.016;2023-07-20T06:09:32;5.97;;;2.15;;
28028;SDS011;15345;59.364;18.016;2023-07-20T06:10:51;7.30;;;1.85;;
28028;SDS011;15345;59.364;18.016;2023-07-20T06:12:13;5.97;;;1.92;;
28028;SDS011;15345;59.364;18.016;2023-07-20T06:13:32;6.30;;;2.13;;
28028;SDS011;15345;59.364;18.016;2023-07-20T06:14:50;5.40;;;2.08;;
28028;SDS011;15345;59.364;18.016;2023-07-20T06:16:09;7.50;;;2.08;;
28028;SDS011;15345;59.364;18.016;2023-07-20T06:17:28;6.45;;;1.92;;
28028;SDS011;15345;59.364;18.016;2023-07-20T06:18:47;7.75;;;2.30;;
28028;SDS011;15345;59.364;18.016;2023-07-20T06:20:06;8.13;;;2.25;;
28028;SDS011;15345;59.364;18.016;2023-07-20T06:21:26;7.57;;;1.88;;
28028;SDS011;15345;59.364;18.016;2023-07-20T06:22:45;6.75;;;2.00;;
28028;SDS011;15345;59.364;18.016;2023-07-20T06:24:04;7.07;;;2.15;;
28028;SDS011;15345;59.364;18.016;2023-07-20T06:25:23;6.18;;;1.67;;
28028;SDS011;15345;59.364;18.016;2023-07-20T06:26:42;5.90;;;2.20;;
28028;SDS011;15345;59.364;18.016;2023-07-20T06:28:01;6.07;;;2.03;;
28028;SDS011;15345;59.364;18.016;2023-07-20T06:29:20;7.68;;;2.80;;
28028;SDS011;15345;59.364;18.016;2023-07-20T06:30:39;8.90;;;2.15;;
28028;SDS011;15345;59.364;18.016;2023-07-20T06:31:58;5.25;;;2.00;;
28028;SDS011;15345;59.364;18.016;2023-07-20T06:33:17;4.78;;;2.00;;
28028;SDS011;15345;59.364;18.016;2023-07-20T06:34:36;5.97;;;2.00;;
28028;SDS011;15345;59.364;18.016;2023-07-20T06:35:57;8.95;;;2.60;;
28028;SDS011;15345;59.364;18.016;2023-07-20T06:37:16;7.43;;;2.53;;
28028;SDS011;15345;59.364;18.016;2023-07-20T06:38:35;8.43;;;2.03;;
28028;SDS011;15345;59.364;18.016;2023-07-20T06:39:55;7.35;;;2.50;;
28028;SDS011;15345;59.364;18.016;2023-07-20T06:41:14;4.10;;;1.98;;
28028;SDS011;15345;59.364;18.016;2023-07-20T06:42:33;6.65;;;1.90;;
28028;SDS011;15345;59.364;18.016;2023-07-20T06:43:51;7.10;;;2.03;;
28028;SDS011;15345;59.364;18.016;2023-07-20T06:45:11;4.43;;;1.73;;
28028;SDS011;15345;59.364;18.016;2023-07-20T06:46:30;3.58;;;2.10;;
28028;SDS011;15345;59.364;18.016;2023-07-20T06:47:49;4.22;;;2.10;;
28028;SDS011;15345;59.364;18.016;2023-07-20T06:49:08;6.97;;;2.10;;
28028;SDS011;15345;59.364;18.016;2023-07-20T06:50:27;6.38;;;1.90;;
28028;SDS011;15345;59.364;18.016;2023-07-20T06:51:46;3.55;;;2.00;;
28028;SDS011;15345;59.364;18.016;2023-07-20T06:53:05;8.00;;;2.22;;
28028;SDS011;15345;59.364;18.016;2023-07-20T06:54:24;4.30;;;2.13;;
28028;SDS011;15345;59.364;18.016;2023-07-20T06:55:43;7.75;;;2.25;;
28028;SDS011;15345;59.364;18.016;2023-07-20T06:57:02;6.32;;;1.90;;
28028;SDS011;15345;59.364;18.016;2023-07-20T06:58:20;6.22;;;1.90;;
28028;SDS011;15345;59.364;18.016;2023-07-20T06:59:40;6.00;;;2.15;;
28028;SDS011;15345;59.364;18.016;2023-07-20T07:00:59;9.00;;;2.08;;
28028;SDS011;15345;59.364;18.016;2023-07-20T07:03:42;5.25;;;1.70;;
28028;SDS011;15345;59.364;18.016;2023-07-20T07:05:01;4.85;;;1.88;;
28028;SDS011;15345;59.364;18.016;2023-07-20T07:06:20;8.77;;;2.15;;
28028;SDS011;15345;59.364;18.016;2023-07-20T07:07:41;9.00;;;2.33;;
28028;SDS011;15345;59.364;18.016;2023-07-20T07:08:59;6.82;;;2.13;;
28028;SDS011;15345;59.364;18.016;2023-07-20T07:10:18;5.28;;;2.33;;
28028;SDS011;15345;59.364;18.016;2023-07-20T07:11:37;8.00;;;2.10;;
28028;SDS011;15345;59.364;18.016;2023-07-20T07:12:56;5.43;;;2.53;;
28028;SDS011;15345;59.364;18.016;2023-07-20T07:14:15;5.60;;;2.20;;
28028;SDS011;15345;59.364;18.016;2023-07-20T07:15:34;7.32;;;2.28;;
28028;SDS011;15345;59.364;18.016;2023-07-20T07:16:53;6.18;;;1.92;;
28028;SDS011;15345;59.364;18.016;2023-07-20T07:18:12;4.47;;;2.08;;
28028;SDS011;15345;59.364;18.016;2023-07-20T07:19:31;6.05;;;2.20;;
28028;SDS011;15345;59.364;18.016;2023-07-20T07:20:51;4.00;;;2.08;;
28028;SDS011;15345;59.364;18.016;2023-07-20T07:22:11;3.38;;;1.85;;
28028;SDS011;15345;59.364;18.016;2023-07-20T07:23:30;6.13;;;2.10;;
28028;SDS011;15345;59.364;18.016;2023-07-20T07:24:49;5.90;;;2.17;;
28028;SDS011;15345;59.364;18.016;2023-07-20T07:26:08;4.65;;;2.05;;
28028;SDS011;15345;59.364;18.016;2023-07-20T07:27:27;3.85;;;1.80;;
28028;SDS011;15345;59.364;18.016;2023-07-20T07:28:46;6.55;;;2.05;;
28028;SDS011;15345;59.364;18.016;2023-07-20T07:30:06;8.88;;;2.28;;
28028;SDS011;15345;59.364;18.016;2023-07-20T07:31:25;5.20;;;2.15;;
28028;SDS011;15345;59.364;18.016;2023-07-20T07:32:44;6.25;;;1.92;;
28028;SDS011;15345;59.364;18.016;2023-07-20T07:34:03;7.50;;;2.05;;
28028;SDS011;15345;59.364;18.016;2023-07-20T07:35:22;4.93;;;1.90;;
28028;SDS011;15345;59.364;18.016;2023-07-20T07:36:41;6.07;;;1.90;;
28028;SDS011;15345;59.364;18.016;2023-07-20T07:38:00;4.97;;;2.10;;
28028;SDS011;15345;59.364;18.016;2023-07-20T07:39:19;3.50;;;1.70;;
28028;SDS011;15345;59.364;18.016;2023-07-20T07:40:38;6.55;;;1.98;;
28028;SDS011;15345;59.364;18.016;2023-07-20T07:41:57;6.15;;;2.03;;
28028;SDS011;15345;59.364;18.016;2023-07-20T07:43:16;4.18;;;1.98;;
28028;SDS011;15345;59.364;18.016;2023-07-20T07:44:35;5.45;;;1.73;;
28028;SDS011;15345;59.364;18.016;2023-07-20T07:45:54;3.58;;;1.98;;
28028;SDS011;15345;59.364;18.016;2023-07-20T07:47:14;4.25;;;1.73;;
28028;SDS011;15345;59.364;18.016;2023-07-20T07:48:33;3.88;;;1.63;;
28028;SDS011;15345;59.364;18.016;2023-07-20T07:49:52;10.00;;;1.75;;
28028;SDS011;15345;59.364;18.016;2023-07-20T07:51:11;4.70;;;1.67;;
28028;SDS011;15345;59.364;18.016;2023-07-20T07:52:32;7.97;;;1.67;;
28028;SDS011;15345;59.364;18.016;2023-07-20T07:53:51;7.43;;;1.85;;
28028;SDS011;15345;59.364;18.016;2023-07-20T07:55:10;4.20;;;1.90;;
28028;SDS011;15345;59.364;18.016;2023-07-20T07:56:29;3.60;;;1.70;;
28028;SDS011;15345;59.364;18.016;2023-07-20T07:57:48;3.50;;;1.48;;
28028;SDS011;15345;59.364;18.016;2023-07-20T07:59:07;5.05;;;1.60;;
28028;SDS011;15345;59.364;18.016;2023-07-20T08:00:26;6.57;;;1.67;;
28028;SDS011;15345;59.364;18.016;2023-07-20T08:01:45;6.93;;;2.10;;
28028;SDS011;15345;59.364;18.016;2023-07-20T08:03:07;4.88;;;1.83;;
28028;SDS011;15345;59.364;18.016;2023-07-20T08:04:26;4.38;;;2.00;;
28028;SDS011;15345;59.364;18.016;2023-07-20T08:05:45;4.38;;;1.40;;
28028;SDS011;15345;59.364;18.016;2023-07-20T08:07:04;5.05;;;1.73;;